sensor_id;sensor_type;location;lat;lon;timestamp;pressure;altitude;pressure_sealevel;temperature
65569;BMP180;52211;50.154;8.682;2022-08-30T00:00:17;100381.00;;;23.50
65569;BMP180;52211;50.154;8.682;2022-08-30T00:03:09;100382.00;;;23.50
65569;BMP180;52211;50.154;8.682;2022-08-30T00:05:39;100376.00;;;23.50
65569;BMP180;52211;50.154;8.682;2022-08-30T00:08:06;100376.00;;;23.50
65569;BMP180;52211;50.154;8.682;2022-08-30T00:10:42;100368.00;;;23.50
65569;BMP180;52211;50.154;8.682;2022-08-30T00:13:12;100365.00;;;23.50
65569;BMP180;52211;50.154;8.682;2022-08-30T00:15:42;100369.00;;;23.40
65569;BMP180;52211;50.154;8.682;2022-08-30T00:18:12;100369.00;;;23.50
65569;BMP180;52211;50.154;8.682;2022-08-30T00:20:39;100369.00;;;23.40
65569;BMP180;52211;50.154;8.682;2022-08-30T00:23:08;100371.00;;;23.40
65569;BMP180;52211;50.154;8.682;2022-08-30T00:25:37;100370.00;;;23.40
65569;BMP180;52211;50.154;8.682;2022-08-30T00:28:04;100371.00;;;23.30
65569;BMP180;52211;50.154;8.682;2022-08-30T00:30:34;100366.00;;;23.30
65569;BMP180;52211;50.154;8.682;2022-08-30T00:33:06;100365.00;;;23.30
65569;BMP180;52211;50.154;8.682;2022-08-30T00:35:33;100366.00;;;23.20
65569;BMP180;52211;50.154;8.682;2022-08-30T00:38:02;100363.00;;;23.20
65569;BMP180;52211;50.154;8.682;2022-08-30T00:40:33;100368.00;;;23.20
65569;BMP180;52211;50.154;8.682;2022-08-30T00:43:03;100359.00;;;23.20
65569;BMP180;52211;50.154;8.682;2022-08-30T00:45:36;100361.00;;;23.10
65569;BMP180;52211;50.154;8.682;2022-08-30T00:48:06;100356.00;;;23.10
65569;BMP180;52211;50.154;8.682;2022-08-30T00:50:43;100354.00;;;23.10
65569;BMP180;52211;50.154;8.682;2022-08-30T00:53:19;100357.00;;;23.00
65569;BMP180;52211;50.154;8.682;2022-08-30T00:55:48;100358.00;;;23.00
65569;BMP180;52211;50.154;8.682;2022-08-30T00:58:23;100368.00;;;22.90
65569;BMP180;52211;50.154;8.682;2022-08-30T01:00:59;100369.00;;;22.90
65569;BMP180;52211;50.154;8.682;2022-08-30T01:03:27;100381.00;;;22.90
65569;BMP180;52211;50.154;8.682;2022-08-30T01:05:57;100381.00;;;22.90
65569;BMP180;52211;50.154;8.682;2022-08-30T01:08:24;100387.00;;;22.90
65569;BMP180;52211;50.154;8.682;2022-08-30T01:10:57;100381.00;;;22.80
65569;BMP180;52211;50.154;8.682;2022-08-30T01:13:26;100381.00;;;22.80
65569;BMP180;52211;50.154;8.682;2022-08-30T01:15:54;100374.00;;;22.80
65569;BMP180;52211;50.154;8.682;2022-08-30T01:18:24;100374.00;;;22.80
65569;BMP180;52211;50.154;8.682;2022-08-30T01:23:42;100377.00;;;22.70
65569;BMP180;52211;50.154;8.682;2022-08-30T01:26:10;100374.00;;;22.70
65569;BMP180;52211;50.154;8.682;2022-08-30T01:28:44;100378.00;;;22.70
65569;BMP180;52211;50.154;8.682;2022-08-30T01:31:12;100380.00;;;22.70
65569;BMP180;52211;50.154;8.682;2022-08-30T01:33:44;100377.00;;;22.60
65569;BMP180;52211;50.154;8.682;2022-08-30T01:36:14;100376.00;;;22.60
65569;BMP180;52211;50.154;8.682;2022-08-30T01:38:52;100383.00;;;22.50
65569;BMP180;52211;50.154;8.682;2022-08-30T01:41:29;100373.00;;;22.50
65569;BMP180;52211;50.154;8.682;2022-08-30T01:44:03;100377.00;;;22.50
65569;BMP180;52211;50.154;8.682;2022-08-30T01:46:37;100370.00;;;22.40
65569;BMP180;52211;50.154;8.682;2022-08-30T01:49:09;100370.00;;;22.40
65569;BMP180;52211;50.154;8.682;2022-08-30T01:51:38;100362.00;;;22.40
65569;BMP180;52211;50.154;8.682;2022-08-30T01:54:10;100364.00;;;22.40
65569;BMP180;52211;50.154;8.682;2022-08-30T01:56:38;100362.00;;;22.40
65569;BMP180;52211;50.154;8.682;2022-08-30T01:59:10;100364.00;;;22.30
65569;BMP180;52211;50.154;8.682;2022-08-30T02:01:40;100365.00;;;22.30
65569;BMP180;52211;50.154;8.682;2022-08-30T02:04:09;100366.00;;;22.30
65569;BMP180;52211;50.154;8.682;2022-08-30T02:06:39;100364.00;;;22.20
65569;BMP180;52211;50.154;8.682;2022-08-30T02:09:06;100355.00;;;22.20
65569;BMP180;52211;50.154;8.682;2022-08-30T02:11:36;100356.00;;;22.20
65569;BMP180;52211;50.154;8.682;2022-08-30T02:14:07;100355.00;;;22.20
65569;BMP180;52211;50.154;8.682;2022-08-30T02:16:34;100357.00;;;22.20
65569;BMP180;52211;50.154;8.682;2022-08-30T02:19:03;100358.00;;;22.10
65569;BMP180;52211;50.154;8.682;2022-08-30T02:21:32;100364.00;;;22.10
65569;BMP180;52211;50.154;8.682;2022-08-30T02:24:02;100358.00;;;22.10
65569;BMP180;52211;50.154;8.682;2022-08-30T02:26:31;100357.00;;;22.10
65569;BMP180;52211;50.154;8.682;2022-08-30T02:29:04;100362.00;;;22.10
65569;BMP180;52211;50.154;8.682;2022-08-30T02:31:31;100365.00;;;22.10
65569;BMP180;52211;50.154;8.682;2022-08-30T02:34:00;100365.00;;;22.00
65569;BMP180;52211;50.154;8.682;2022-08-30T02:36:30;100362.00;;;22.00
65569;BMP180;52211;50.154;8.682;2022-08-30T02:38:59;100360.00;;;22.00
65569;BMP180;52211;50.154;8.682;2022-08-30T02:41:26;100360.00;;;22.00
65569;BMP180;52211;50.154;8.682;2022-08-30T02:43:57;100363.00;;;22.00
65569;BMP180;52211;50.154;8.682;2022-08-30T02:46:29;100360.00;;;22.00
65569;BMP180;52211;50.154;8.682;2022-08-30T02:49:00;100366.00;;;22.00
65569;BMP180;52211;50.154;8.682;2022-08-30T02:51:48;100362.00;;;21.90
65569;BMP180;52211;50.154;8.682;2022-08-30T02:54:18;100362.00;;;21.90
65569;BMP180;52211;50.154;8.682;2022-08-30T02:56:49;100364.00;;;21.90
65569;BMP180;52211;50.154;8.682;2022-08-30T02:59:20;100366.00;;;21.90
65569;BMP180;52211;50.154;8.682;2022-08-30T03:01:47;100356.00;;;21.90
65569;BMP180;52211;50.154;8.682;2022-08-30T03:04:18;100352.00;;;21.80
65569;BMP180;52211;50.154;8.682;2022-08-30T03:06:53;100346.00;;;21.80
65569;BMP180;52211;50.154;8.682;2022-08-30T03:09:25;100352.00;;;21.80
65569;BMP180;52211;50.154;8.682;2022-08-30T03:11:54;100355.00;;;21.80
65569;BMP180;52211;50.154;8.682;2022-08-30T03:14:21;100340.00;;;21.80
65569;BMP180;52211;50.154;8.682;2022-08-30T03:16:48;100338.00;;;21.80
65569;BMP180;52211;50.154;8.682;2022-08-30T03:19:15;100340.00;;;21.80
65569;BMP180;52211;50.154;8.682;2022-08-30T03:21:49;100350.00;;;21.70
65569;BMP180;52211;50.154;8.682;2022-08-30T03:24:16;100342.00;;;21.70
65569;BMP180;52211;50.154;8.682;2022-08-30T03:26:43;100343.00;;;21.70
65569;BMP180;52211;50.154;8.682;2022-08-30T03:29:12;100341.00;;;21.70
65569;BMP180;52211;50.154;8.682;2022-08-30T03:31:41;100339.00;;;21.70
65569;BMP180;52211;50.154;8.682;2022-08-30T03:34:19;100332.00;;;21.70
65569;BMP180;52211;50.154;8.682;2022-08-30T03:36:57;100341.00;;;21.70
65569;BMP180;52211;50.154;8.682;2022-08-30T03:39:26;100330.00;;;21.70
65569;BMP180;52211;50.154;8.682;2022-08-30T03:41:55;100331.00;;;21.70
65569;BMP180;52211;50.154;8.682;2022-08-30T03:44:24;100333.00;;;21.60
65569;BMP180;52211;50.154;8.682;2022-08-30T03:46:51;100340.00;;;21.60
65569;BMP180;52211;50.154;8.682;2022-08-30T03:49:21;100331.00;;;21.60
65569;BMP180;52211;50.154;8.682;2022-08-30T03:51:52;100333.00;;;21.60
65569;BMP180;52211;50.154;8.682;2022-08-30T03:54:21;100335.00;;;21.60
65569;BMP180;52211;50.154;8.682;2022-08-30T03:56:50;100340.00;;;21.60
65569;BMP180;52211;50.154;8.682;2022-08-30T03:59:17;100347.00;;;21.60
65569;BMP180;52211;50.154;8.682;2022-08-30T04:01:49;100348.00;;;21.60
65569;BMP180;52211;50.154;8.682;2022-08-30T04:04:16;100345.00;;;21.50
65569;BMP180;52211;50.154;8.682;2022-08-30T04:06:47;100342.00;;;21.50
65569;BMP180;52211;50.154;8.682;2022-08-30T04:09:19;100342.00;;;21.50
65569;BMP180;52211;50.154;8.682;2022-08-30T04:11:49;100342.00;;;21.50
65569;BMP180;52211;50.154;8.682;2022-08-30T04:14:17;100345.00;;;21.50
65569;BMP180;52211;50.154;8.682;2022-08-30T04:16:46;100350.00;;;21.50
65569;BMP180;52211;50.154;8.682;2022-08-30T04:19:15;100348.00;;;21.50
65569;BMP180;52211;50.154;8.682;2022-08-30T04:21:44;100349.00;;;21.50
65569;BMP180;52211;50.154;8.682;2022-08-30T04:24:14;100346.00;;;21.50
65569;BMP180;52211;50.154;8.682;2022-08-30T04:26:43;100346.00;;;21.50
65569;BMP180;52211;50.154;8.682;2022-08-30T04:29:13;100345.00;;;21.40
65569;BMP180;52211;50.154;8.682;2022-08-30T04:31:44;100342.00;;;21.40
65569;BMP180;52211;50.154;8.682;2022-08-30T04:34:12;100344.00;;;21.40
65569;BMP180;52211;50.154;8.682;2022-08-30T04:36:44;100345.00;;;21.40
65569;BMP180;52211;50.154;8.682;2022-08-30T04:39:17;100342.00;;;21.40
65569;BMP180;52211;50.154;8.682;2022-08-30T04:41:44;100345.00;;;21.40
65569;BMP180;52211;50.154;8.682;2022-08-30T04:44:11;100348.00;;;21.40
65569;BMP180;52211;50.154;8.682;2022-08-30T04:46:44;100348.00;;;21.40
65569;BMP180;52211;50.154;8.682;2022-08-30T04:49:13;100351.00;;;21.40
65569;BMP180;52211;50.154;8.682;2022-08-30T04:51:42;100362.00;;;21.40
65569;BMP180;52211;50.154;8.682;2022-08-30T04:54:09;100354.00;;;21.40
65569;BMP180;52211;50.154;8.682;2022-08-30T04:56:39;100358.00;;;21.30
65569;BMP180;52211;50.154;8.682;2022-08-30T04:59:05;100362.00;;;21.30
65569;BMP180;52211;50.154;8.682;2022-08-30T05:01:32;100364.00;;;21.30
65569;BMP180;52211;50.154;8.682;2022-08-30T05:04:15;100369.00;;;21.30
65569;BMP180;52211;50.154;8.682;2022-08-30T05:06:45;100368.00;;;21.30
65569;BMP180;52211;50.154;8.682;2022-08-30T05:09:12;100365.00;;;21.30
65569;BMP180;52211;50.154;8.682;2022-08-30T05:11:39;100362.00;;;21.30
65569;BMP180;52211;50.154;8.682;2022-08-30T05:14:06;100373.00;;;21.30
65569;BMP180;52211;50.154;8.682;2022-08-30T05:16:38;100376.00;;;21.30
65569;BMP180;52211;50.154;8.682;2022-08-30T05:19:14;100377.00;;;21.20
65569;BMP180;52211;50.154;8.682;2022-08-30T05:21:40;100372.00;;;21.30
65569;BMP180;52211;50.154;8.682;2022-08-30T05:24:10;100378.00;;;21.30
65569;BMP180;52211;50.154;8.682;2022-08-30T05:26:37;100376.00;;;21.30
65569;BMP180;52211;50.154;8.682;2022-08-30T05:29:06;100373.00;;;21.30
65569;BMP180;52211;50.154;8.682;2022-08-30T05:31:35;100384.00;;;21.30
65569;BMP180;52211;50.154;8.682;2022-08-30T05:34:03;100377.00;;;21.30
65569;BMP180;52211;50.154;8.682;2022-08-30T05:36:35;100385.00;;;21.30
65569;BMP180;52211;50.154;8.682;2022-08-30T05:39:05;100381.00;;;21.30
65569;BMP180;52211;50.154;8.682;2022-08-30T05:41:35;100382.00;;;21.30
65569;BMP180;52211;50.154;8.682;2022-08-30T05:44:09;100386.00;;;21.30
65569;BMP180;52211;50.154;8.682;2022-08-30T05:46:37;100394.00;;;21.40
65569;BMP180;52211;50.154;8.682;2022-08-30T05:49:13;100397.00;;;21.40
65569;BMP180;52211;50.154;8.682;2022-08-30T05:51:45;100400.00;;;21.40
65569;BMP180;52211;50.154;8.682;2022-08-30T05:54:17;100390.00;;;21.40
65569;BMP180;52211;50.154;8.682;2022-08-30T05:56:47;100398.00;;;21.50
65569;BMP180;52211;50.154;8.682;2022-08-30T05:59:14;100395.00;;;21.50
65569;BMP180;52211;50.154;8.682;2022-08-30T06:01:45;100397.00;;;21.50
65569;BMP180;52211;50.154;8.682;2022-08-30T06:04:13;100393.00;;;21.60
65569;BMP180;52211;50.154;8.682;2022-08-30T06:06:43;100402.00;;;21.60
65569;BMP180;52211;50.154;8.682;2022-08-30T06:09:13;100402.00;;;21.70
65569;BMP180;52211;50.154;8.682;2022-08-30T06:11:43;100407.00;;;21.70
65569;BMP180;52211;50.154;8.682;2022-08-30T06:14:11;100400.00;;;21.80
65569;BMP180;52211;50.154;8.682;2022-08-30T06:16:41;100404.00;;;21.80
65569;BMP180;52211;50.154;8.682;2022-08-30T06:19:12;100393.00;;;21.90
65569;BMP180;52211;50.154;8.682;2022-08-30T06:21:47;100393.00;;;21.90
65569;BMP180;52211;50.154;8.682;2022-08-30T06:24:14;100393.00;;;22.00
65569;BMP180;52211;50.154;8.682;2022-08-30T06:26:45;100395.00;;;22.00
65569;BMP180;52211;50.154;8.682;2022-08-30T06:29:22;100386.00;;;22.00
65569;BMP180;52211;50.154;8.682;2022-08-30T06:31:49;100394.00;;;22.10
65569;BMP180;52211;50.154;8.682;2022-08-30T06:34:22;100387.00;;;22.10
65569;BMP180;52211;50.154;8.682;2022-08-30T06:36:49;100391.00;;;22.20
65569;BMP180;52211;50.154;8.682;2022-08-30T06:39:18;100401.00;;;22.20
65569;BMP180;52211;50.154;8.682;2022-08-30T06:41:47;100392.00;;;22.30
65569;BMP180;52211;50.154;8.682;2022-08-30T06:44:14;100395.00;;;22.30
65569;BMP180;52211;50.154;8.682;2022-08-30T06:46:42;100399.00;;;22.40
65569;BMP180;52211;50.154;8.682;2022-08-30T06:49:11;100399.00;;;22.50
65569;BMP180;52211;50.154;8.682;2022-08-30T06:51:41;100401.00;;;22.50
65569;BMP180;52211;50.154;8.682;2022-08-30T06:54:11;100398.00;;;22.60
65569;BMP180;52211;50.154;8.682;2022-08-30T06:56:40;100399.00;;;22.70
65569;BMP180;52211;50.154;8.682;2022-08-30T06:59:24;100398.00;;;22.70
65569;BMP180;52211;50.154;8.682;2022-08-30T07:01:54;100394.00;;;22.80
65569;BMP180;52211;50.154;8.682;2022-08-30T07:04:25;100401.00;;;22.90
65569;BMP180;52211;50.154;8.682;2022-08-30T07:06:52;100408.00;;;23.00
65569;BMP180;52211;50.154;8.682;2022-08-30T07:09:21;100405.00;;;23.00
65569;BMP180;52211;50.154;8.682;2022-08-30T07:11:53;100406.00;;;23.10
65569;BMP180;52211;50.154;8.682;2022-08-30T07:14:20;100409.00;;;23.10
65569;BMP180;52211;50.154;8.682;2022-08-30T07:16:47;100411.00;;;23.20
65569;BMP180;52211;50.154;8.682;2022-08-30T07:19:23;100412.00;;;23.30
65569;BMP180;52211;50.154;8.682;2022-08-30T07:21:53;100412.00;;;23.30
65569;BMP180;52211;50.154;8.682;2022-08-30T07:24:20;100421.00;;;23.40
65569;BMP180;52211;50.154;8.682;2022-08-30T07:26:49;100421.00;;;23.40
65569;BMP180;52211;50.154;8.682;2022-08-30T07:29:21;100421.00;;;23.50
65569;BMP180;52211;50.154;8.682;2022-08-30T07:31:48;100423.00;;;23.60
65569;BMP180;52211;50.154;8.682;2022-08-30T07:34:17;100430.00;;;23.60
65569;BMP180;52211;50.154;8.682;2022-08-30T07:36:48;100425.00;;;23.70
65569;BMP180;52211;50.154;8.682;2022-08-30T07:39:14;100429.00;;;23.80
65569;BMP180;52211;50.154;8.682;2022-08-30T07:41:41;100423.00;;;23.90
65569;BMP180;52211;50.154;8.682;2022-08-30T07:44:10;100421.00;;;23.90
65569;BMP180;52211;50.154;8.682;2022-08-30T07:46:41;100418.00;;;24.00
65569;BMP180;52211;50.154;8.682;2022-08-30T07:49:09;100416.00;;;24.10
65569;BMP180;52211;50.154;8.682;2022-08-30T07:51:38;100431.00;;;24.20
65569;BMP180;52211;50.154;8.682;2022-08-30T07:54:11;100423.00;;;24.30
65569;BMP180;52211;50.154;8.682;2022-08-30T07:56:40;100417.00;;;24.40
65569;BMP180;52211;50.154;8.682;2022-08-30T07:59:09;100422.00;;;24.50
65569;BMP180;52211;50.154;8.682;2022-08-30T08:01:38;100421.00;;;24.50
65569;BMP180;52211;50.154;8.682;2022-08-30T08:04:08;100426.00;;;24.60
65569;BMP180;52211;50.154;8.682;2022-08-30T08:06:39;100421.00;;;24.80
65569;BMP180;52211;50.154;8.682;2022-08-30T08:09:08;100432.00;;;24.90
65569;BMP180;52211;50.154;8.682;2022-08-30T08:11:36;100434.00;;;25.00
65569;BMP180;52211;50.154;8.682;2022-08-30T08:14:03;100432.00;;;25.10
65569;BMP180;52211;50.154;8.682;2022-08-30T08:16:37;100432.00;;;25.20
65569;BMP180;52211;50.154;8.682;2022-08-30T08:19:08;100429.00;;;25.30
65569;BMP180;52211;50.154;8.682;2022-08-30T08:21:36;100428.00;;;25.40
65569;BMP180;52211;50.154;8.682;2022-08-30T08:24:10;100431.00;;;25.50
65569;BMP180;52211;50.154;8.682;2022-08-30T08:26:41;100429.00;;;25.50
65569;BMP180;52211;50.154;8.682;2022-08-30T08:29:11;100428.00;;;25.60
65569;BMP180;52211;50.154;8.682;2022-08-30T08:31:41;100423.00;;;25.70
65569;BMP180;52211;50.154;8.682;2022-08-30T08:34:10;100427.00;;;25.80
65569;BMP180;52211;50.154;8.682;2022-08-30T08:36:40;100427.00;;;25.90
65569;BMP180;52211;50.154;8.682;2022-08-30T08:39:12;100434.00;;;26.00
65569;BMP180;52211;50.154;8.682;2022-08-30T08:45:16;100427.00;;;26.30
65569;BMP180;52211;50.154;8.682;2022-08-30T08:48:02;100432.00;;;26.40
65569;BMP180;52211;50.154;8.682;2022-08-30T08:50:33;100432.00;;;26.50
65569;BMP180;52211;50.154;8.682;2022-08-30T08:53:11;100430.00;;;26.60
65569;BMP180;52211;50.154;8.682;2022-08-30T08:56:20;100427.00;;;26.70
65569;BMP180;52211;50.154;8.682;2022-08-30T08:58:54;100430.00;;;26.80
65569;BMP180;52211;50.154;8.682;2022-08-30T09:01:27;100433.00;;;26.90
65569;BMP180;52211;50.154;8.682;2022-08-30T09:04:00;100422.00;;;27.00
65569;BMP180;52211;50.154;8.682;2022-08-30T09:07:04;100425.00;;;27.10
65569;BMP180;52211;50.154;8.682;2022-08-30T09:09:38;100417.00;;;27.20
65569;BMP180;52211;50.154;8.682;2022-08-30T09:12:10;100418.00;;;27.20
65569;BMP180;52211;50.154;8.682;2022-08-30T09:14:43;100416.00;;;27.30
65569;BMP180;52211;50.154;8.682;2022-08-30T09:17:18;100416.00;;;27.40
65569;BMP180;52211;50.154;8.682;2022-08-30T09:22:42;100402.00;;;27.50
65569;BMP180;52211;50.154;8.682;2022-08-30T09:27:47;100409.00;;;27.70
65569;BMP180;52211;50.154;8.682;2022-08-30T09:30:16;100397.00;;;27.90
65569;BMP180;52211;50.154;8.682;2022-08-30T09:33:00;100399.00;;;27.90
65569;BMP180;52211;50.154;8.682;2022-08-30T09:35:42;100397.00;;;28.00
65569;BMP180;52211;50.154;8.682;2022-08-30T09:40:55;100396.00;;;28.10
65569;BMP180;52211;50.154;8.682;2022-08-30T09:43:30;100392.00;;;28.20
65569;BMP180;52211;50.154;8.682;2022-08-30T09:57:00;100371.00;;;28.60
65569;BMP180;52211;50.154;8.682;2022-08-30T10:00:03;100381.00;;;28.70
65569;BMP180;52211;50.154;8.682;2022-08-30T10:05:55;100377.00;;;28.90
65569;BMP180;52211;50.154;8.682;2022-08-30T10:22:39;100348.00;;;29.50
65569;BMP180;52211;50.154;8.682;2022-08-30T10:25:31;100343.00;;;29.60
65569;BMP180;52211;50.154;8.682;2022-08-30T10:28:10;100346.00;;;29.80
65569;BMP180;52211;50.154;8.682;2022-08-30T10:31:08;100349.00;;;29.90
65569;BMP180;52211;50.154;8.682;2022-08-30T10:33:45;100341.00;;;30.00
65569;BMP180;52211;50.154;8.682;2022-08-30T10:36:14;100351.00;;;30.10
65569;BMP180;52211;50.154;8.682;2022-08-30T10:38:51;100348.00;;;30.30
65569;BMP180;52211;50.154;8.682;2022-08-30T10:41:35;100343.00;;;30.40
65569;BMP180;52211;50.154;8.682;2022-08-30T10:44:17;100335.00;;;30.50
65569;BMP180;52211;50.154;8.682;2022-08-30T10:55:24;100337.00;;;31.10
65569;BMP180;52211;50.154;8.682;2022-08-30T10:57:52;100340.00;;;31.20
65569;BMP180;52211;50.154;8.682;2022-08-30T11:00:49;100336.00;;;31.40
65569;BMP180;52211;50.154;8.682;2022-08-30T11:15:22;100326.00;;;32.10
65569;BMP180;52211;50.154;8.682;2022-08-30T11:20:45;100319.00;;;32.40
65569;BMP180;52211;50.154;8.682;2022-08-30T11:23:23;100318.00;;;32.60
65569;BMP180;52211;50.154;8.682;2022-08-30T11:31:27;100317.00;;;32.90
65569;BMP180;52211;50.154;8.682;2022-08-30T11:33:59;100318.00;;;33.10
65569;BMP180;52211;50.154;8.682;2022-08-30T11:41:46;100309.00;;;33.50
65569;BMP180;52211;50.154;8.682;2022-08-30T11:44:33;100301.00;;;33.70
65569;BMP180;52211;50.154;8.682;2022-08-30T11:56:21;100304.00;;;34.20
65569;BMP180;52211;50.154;8.682;2022-08-30T12:01:50;100297.00;;;34.50
65569;BMP180;52211;50.154;8.682;2022-08-30T12:06:54;100284.00;;;34.80
65569;BMP180;52211;50.154;8.682;2022-08-30T12:15:03;100284.00;;;35.10
65569;BMP180;52211;50.154;8.682;2022-08-30T12:17:51;100283.00;;;35.20
65569;BMP180;52211;50.154;8.682;2022-08-30T12:20:47;100280.00;;;35.40
65569;BMP180;52211;50.154;8.682;2022-08-30T12:23:45;100285.00;;;35.60
65569;BMP180;52211;50.154;8.682;2022-08-30T12:32:21;100280.00;;;36.00
65569;BMP180;52211;50.154;8.682;2022-08-30T12:37:37;100271.00;;;36.40
65569;BMP180;52211;50.154;8.682;2022-08-30T12:42:54;100267.00;;;36.70
65569;BMP180;52211;50.154;8.682;2022-08-30T12:45:31;100278.00;;;36.90
65569;BMP180;52211;50.154;8.682;2022-08-30T12:48:07;100276.00;;;37.10
65569;BMP180;52211;50.154;8.682;2022-08-30T12:50:54;100266.00;;;37.20
65569;BMP180;52211;50.154;8.682;2022-08-30T12:53:31;100263.00;;;37.40
65569;BMP180;52211;50.154;8.682;2022-08-30T12:56:13;100271.00;;;37.50
65569;BMP180;52211;50.154;8.682;2022-08-30T12:58:51;100262.00;;;37.70
65569;BMP180;52211;50.154;8.682;2022-08-30T13:04:19;100258.00;;;38.10
65569;BMP180;52211;50.154;8.682;2022-08-30T13:07:00;100256.00;;;38.40
65569;BMP180;52211;50.154;8.682;2022-08-30T13:09:39;100250.00;;;38.70
65569;BMP180;52211;50.154;8.682;2022-08-30T13:14:55;100249.00;;;39.20
65569;BMP180;52211;50.154;8.682;2022-08-30T13:17:36;100250.00;;;39.50
65569;BMP180;52211;50.154;8.682;2022-08-30T13:20:22;100254.00;;;39.70
65569;BMP180;52211;50.154;8.682;2022-08-30T13:23:08;100251.00;;;40.00
65569;BMP180;52211;50.154;8.682;2022-08-30T13:25:38;100242.00;;;40.20
65569;BMP180;52211;50.154;8.682;2022-08-30T13:28:11;100241.00;;;40.40
65569;BMP180;52211;50.154;8.682;2022-08-30T13:30:37;100241.00;;;40.50
65569;BMP180;52211;50.154;8.682;2022-08-30T13:33:09;100240.00;;;40.70
65569;BMP180;52211;50.154;8.682;2022-08-30T13:35:37;100238.00;;;40.80
65569;BMP180;52211;50.154;8.682;2022-08-30T13:38:04;100233.00;;;40.90
65569;BMP180;52211;50.154;8.682;2022-08-30T13:40:33;100234.00;;;41.00
65569;BMP180;52211;50.154;8.682;2022-08-30T13:43:03;100236.00;;;41.10
65569;BMP180;52211;50.154;8.682;2022-08-30T13:45:30;100236.00;;;41.10
65569;BMP180;52211;50.154;8.682;2022-08-30T13:48:07;100226.00;;;41.10
65569;BMP180;52211;50.154;8.682;2022-08-30T13:50:36;100220.00;;;41.20
65569;BMP180;52211;50.154;8.682;2022-08-30T13:53:06;100223.00;;;41.20
65569;BMP180;52211;50.154;8.682;2022-08-30T13:55:38;100219.00;;;41.20
65569;BMP180;52211;50.154;8.682;2022-08-30T13:58:10;100214.00;;;41.20
65569;BMP180;52211;50.154;8.682;2022-08-30T14:00:39;100223.00;;;41.10
65569;BMP180;52211;50.154;8.682;2022-08-30T14:03:11;100220.00;;;41.00
65569;BMP180;52211;50.154;8.682;2022-08-30T14:05:40;100210.00;;;40.90
65569;BMP180;52211;50.154;8.682;2022-08-30T14:08:29;100216.00;;;40.90
65569;BMP180;52211;50.154;8.682;2022-08-30T14:11:18;100220.00;;;41.00
65569;BMP180;52211;50.154;8.682;2022-08-30T14:13:48;100216.00;;;41.20
65569;BMP180;52211;50.154;8.682;2022-08-30T14:16:41;100214.00;;;41.40
65569;BMP180;52211;50.154;8.682;2022-08-30T14:19:10;100221.00;;;41.60
65569;BMP180;52211;50.154;8.682;2022-08-30T14:21:42;100208.00;;;41.80
65569;BMP180;52211;50.154;8.682;2022-08-30T14:24:14;100200.00;;;42.00
65569;BMP180;52211;50.154;8.682;2022-08-30T14:26:50;100204.00;;;42.20
65569;BMP180;52211;50.154;8.682;2022-08-30T14:29:21;100205.00;;;42.40
65569;BMP180;52211;50.154;8.682;2022-08-30T14:31:51;100199.00;;;42.60
65569;BMP180;52211;50.154;8.682;2022-08-30T14:34:21;100197.00;;;42.80
65569;BMP180;52211;50.154;8.682;2022-08-30T14:36:48;100195.00;;;43.00
65569;BMP180;52211;50.154;8.682;2022-08-30T14:39:21;100187.00;;;43.20
65569;BMP180;52211;50.154;8.682;2022-08-30T14:41:53;100195.00;;;43.30
65569;BMP180;52211;50.154;8.682;2022-08-30T14:44:25;100200.00;;;43.40
65569;BMP180;52211;50.154;8.682;2022-08-30T14:46:53;100192.00;;;43.50
65569;BMP180;52211;50.154;8.682;2022-08-30T14:49:24;100181.00;;;43.60
65569;BMP180;52211;50.154;8.682;2022-08-30T14:51:54;100183.00;;;43.70
65569;BMP180;52211;50.154;8.682;2022-08-30T14:54:29;100179.00;;;43.80
65569;BMP180;52211;50.154;8.682;2022-08-30T14:56:57;100179.00;;;44.00
65569;BMP180;52211;50.154;8.682;2022-08-30T14:59:26;100174.00;;;44.10
65569;BMP180;52211;50.154;8.682;2022-08-30T15:01:56;100170.00;;;44.20
65569;BMP180;52211;50.154;8.682;2022-08-30T15:04:23;100168.00;;;44.20
65569;BMP180;52211;50.154;8.682;2022-08-30T15:06:51;100168.00;;;44.30
65569;BMP180;52211;50.154;8.682;2022-08-30T15:09:23;100167.00;;;44.30
65569;BMP180;52211;50.154;8.682;2022-08-30T15:11:54;100169.00;;;44.20
65569;BMP180;52211;50.154;8.682;2022-08-30T15:14:24;100163.00;;;44.20
65569;BMP180;52211;50.154;8.682;2022-08-30T15:16:55;100160.00;;;44.20
65569;BMP180;52211;50.154;8.682;2022-08-30T15:19:26;100162.00;;;44.20
65569;BMP180;52211;50.154;8.682;2022-08-30T15:22:05;100151.00;;;44.10
65569;BMP180;52211;50.154;8.682;2022-08-30T15:24:33;100157.00;;;43.90
65569;BMP180;52211;50.154;8.682;2022-08-30T15:27:03;100149.00;;;43.90
65569;BMP180;52211;50.154;8.682;2022-08-30T15:29:32;100152.00;;;43.80
65569;BMP180;52211;50.154;8.682;2022-08-30T15:32:03;100145.00;;;43.80
65569;BMP180;52211;50.154;8.682;2022-08-30T15:34:31;100149.00;;;43.60
65569;BMP180;52211;50.154;8.682;2022-08-30T15:37:00;100157.00;;;43.40
65569;BMP180;52211;50.154;8.682;2022-08-30T15:39:30;100146.00;;;43.20
65569;BMP180;52211;50.154;8.682;2022-08-30T15:41:57;100144.00;;;42.90
65569;BMP180;52211;50.154;8.682;2022-08-30T15:44:33;100142.00;;;42.60
65569;BMP180;52211;50.154;8.682;2022-08-30T15:47:00;100133.00;;;42.30
65569;BMP180;52211;50.154;8.682;2022-08-30T15:49:27;100143.00;;;42.10
65569;BMP180;52211;50.154;8.682;2022-08-30T15:52:02;100137.00;;;41.90
65569;BMP180;52211;50.154;8.682;2022-08-30T15:54:34;100136.00;;;41.70
65569;BMP180;52211;50.154;8.682;2022-08-30T15:57:00;100145.00;;;41.60
65569;BMP180;52211;50.154;8.682;2022-08-30T15:59:33;100133.00;;;41.60
65569;BMP180;52211;50.154;8.682;2022-08-30T16:02:03;100135.00;;;41.40
65569;BMP180;52211;50.154;8.682;2022-08-30T16:04:33;100136.00;;;41.20
65569;BMP180;52211;50.154;8.682;2022-08-30T16:07:05;100136.00;;;41.00
65569;BMP180;52211;50.154;8.682;2022-08-30T16:09:34;100133.00;;;40.80
65569;BMP180;52211;50.154;8.682;2022-08-30T16:12:06;100133.00;;;40.60
65569;BMP180;52211;50.154;8.682;2022-08-30T16:14:38;100124.00;;;40.40
65569;BMP180;52211;50.154;8.682;2022-08-30T16:17:07;100128.00;;;40.20